sensor_id;sensor_type;location;lat;lon;timestamp;temperature;humidity
63094;DHT22;49183;51.380;0.098;2022-10-31T08:46:35;13.40;91.40
63094;DHT22;49183;51.380;0.098;2022-10-31T08:49:03;13.50;91.30
63094;DHT22;49183;51.380;0.098;2022-10-31T08:51:31;13.50;91.00
63094;DHT22;49183;51.380;0.098;2022-10-31T08:53:58;13.60;90.90
63094;DHT22;49183;51.380;0.098;2022-10-31T08:56:36;13.60;90.80
63094;DHT22;49183;51.380;0.098;2022-10-31T08:59:13;13.60;90.60
63094;DHT22;49183;51.380;0.098;2022-10-31T09:05:42;13.70;90.20
63094;DHT22;49183;51.380;0.098;2022-10-31T09:08:12;13.70;89.70
63094;DHT22;49183;51.380;0.098;2022-10-31T09:10:45;13.70;89.60
63094;DHT22;49183;51.380;0.098;2022-10-31T09:13:17;13.70;89.50
63094;DHT22;49183;51.380;0.098;2022-10-31T09:15:46;13.70;89.50
63094;DHT22;49183;51.380;0.098;2022-10-31T09:18:21;13.80;89.60
63094;DHT22;49183;51.380;0.098;2022-10-31T09:21:00;13.80;89.60
63094;DHT22;49183;51.380;0.098;2022-10-31T09:23:30;13.80;89.30
63094;DHT22;49183;51.380;0.098;2022-10-31T09:25:59;13.80;89.40
63094;DHT22;49183;51.380;0.098;2022-10-31T09:28:30;13.90;89.10
63094;DHT22;49183;51.380;0.098;2022-10-31T09:31:17;13.80;88.80
63094;DHT22;49183;51.380;0.098;2022-10-31T09:34:05;13.80;88.50
63094;DHT22;49183;51.380;0.098;2022-10-31T09:36:35;13.90;88.40
63094;DHT22;49183;51.380;0.098;2022-10-31T09:39:06;13.90;88.30
63094;DHT22;49183;51.380;0.098;2022-10-31T09:52:00;14.00;88.20
63094;DHT22;49183;51.380;0.098;2022-10-31T09:57:19;14.10;88.10
63094;DHT22;49183;51.380;0.098;2022-10-31T09:59:50;14.10;87.90
63094;DHT22;49183;51.380;0.098;2022-10-31T10:07:27;14.20;87.40
63094;DHT22;49183;51.380;0.098;2022-10-31T10:13:10;14.30;87.30
63094;DHT22;49183;51.380;0.098;2022-10-31T10:26:01;14.30;87.20
63094;DHT22;49183;51.380;0.098;2022-10-31T10:28:37;14.30;87.20
63094;DHT22;49183;51.380;0.098;2022-10-31T10:31:15;14.30;87.30
63094;DHT22;49183;51.380;0.098;2022-10-31T10:34:31;14.40;87.30
63094;DHT22;49183;51.380;0.098;2022-10-31T10:36:33;14.50;87.20
63094;DHT22;49183;51.380;0.098;2022-10-31T10:39:23;14.60;87.10
63094;DHT22;49183;51.380;0.098;2022-10-31T10:41:51;14.60;86.90
63094;DHT22;49183;51.380;0.098;2022-10-31T10:44:38;14.70;86.60
63094;DHT22;49183;51.380;0.098;2022-10-31T10:47:26;14.80;86.40
63094;DHT22;49183;51.380;0.098;2022-10-31T10:50:14;14.90;85.90
63094;DHT22;49183;51.380;0.098;2022-10-31T10:55:26;15.00;85.80
63094;DHT22;49183;51.380;0.098;2022-10-31T10:57:56;15.00;85.50
63094;DHT22;49183;51.380;0.098;2022-10-31T11:00:30;15.10;85.40
63094;DHT22;49183;51.380;0.098;2022-10-31T11:02:59;15.20;85.10
63094;DHT22;49183;51.380;0.098;2022-10-31T11:08:01;15.50;84.50
63094;DHT22;49183;51.380;0.098;2022-10-31T11:10:29;15.60;84.00
63094;DHT22;49183;51.380;0.098;2022-10-31T11:12:58;15.60;83.50
63094;DHT22;49183;51.380;0.098;2022-10-31T11:15:28;15.50;83.20
63094;DHT22;49183;51.380;0.098;2022-10-31T11:17:56;15.40;83.20
63094;DHT22;49183;51.380;0.098;2022-10-31T11:23:00;15.20;83.60
63094;DHT22;49183;51.380;0.098;2022-10-31T11:25:28;15.20;83.60
63094;DHT22;49183;51.380;0.098;2022-10-31T11:27:59;15.10;83.80
63094;DHT22;49183;51.380;0.098;2022-10-31T11:30:27;15.10;83.60
63094;DHT22;49183;51.380;0.098;2022-10-31T11:32:55;15.10;83.70
63094;DHT22;49183;51.380;0.098;2022-10-31T11:35:23;15.00;83.70
63094;DHT22;49183;51.380;0.098;2022-10-31T11:37:51;15.00;83.70
63094;DHT22;49183;51.380;0.098;2022-10-31T11:40:21;15.00;83.80
63094;DHT22;49183;51.380;0.098;2022-10-31T11:42:50;14.90;83.90
63094;DHT22;49183;51.380;0.098;2022-10-31T11:45:32;14.90;84.00
63094;DHT22;49183;51.380;0.098;2022-10-31T11:48:01;14.90;84.00
63094;DHT22;49183;51.380;0.098;2022-10-31T11:53:00;14.90;84.10
63094;DHT22;49183;51.380;0.098;2022-10-31T11:55:32;14.90;84.20
63094;DHT22;49183;51.380;0.098;2022-10-31T11:58:00;14.90;84.30
63094;DHT22;49183;51.380;0.098;2022-10-31T12:05:43;14.90;84.40
63094;DHT22;49183;51.380;0.098;2022-10-31T12:08:12;14.90;84.60
63094;DHT22;49183;51.380;0.098;2022-10-31T12:13:33;14.90;84.60
63094;DHT22;49183;51.380;0.098;2022-10-31T12:16:20;15.00;84.20
63094;DHT22;49183;51.380;0.098;2022-10-31T12:21:52;15.00;84.10
63094;DHT22;49183;51.380;0.098;2022-10-31T12:24:38;15.10;83.80
63094;DHT22;49183;51.380;0.098;2022-10-31T12:27:11;15.10;83.40
63094;DHT22;49183;51.380;0.098;2022-10-31T12:35:18;15.10;83.30
63094;DHT22;49183;51.380;0.098;2022-10-31T12:43:15;15.20;83.40
63094;DHT22;49183;51.380;0.098;2022-10-31T12:45:56;15.20;83.30
63094;DHT22;49183;51.380;0.098;2022-10-31T12:48:30;15.20;83.30
63094;DHT22;49183;51.380;0.098;2022-10-31T12:58:41;15.20;83.60
63094;DHT22;49183;51.380;0.098;2022-10-31T13:01:12;15.20;83.60
63094;DHT22;49183;51.380;0.098;2022-10-31T13:06:27;15.30;83.40
63094;DHT22;49183;51.380;0.098;2022-10-31T13:09:01;15.30;83.30
63094;DHT22;49183;51.380;0.098;2022-10-31T13:11:34;15.30;83.20
63094;DHT22;49183;51.380;0.098;2022-10-31T13:14:07;15.30;83.20
63094;DHT22;49183;51.380;0.098;2022-10-31T13:16:37;15.20;83.30
63094;DHT22;49183;51.380;0.098;2022-10-31T13:19:10;15.20;83.40
63094;DHT22;49183;51.380;0.098;2022-10-31T13:24:30;15.20;83.60
63094;DHT22;49183;51.380;0.098;2022-10-31T13:26:59;15.10;83.70
63094;DHT22;49183;51.380;0.098;2022-10-31T13:29:43;15.10;83.50
63094;DHT22;49183;51.380;0.098;2022-10-31T13:32:11;15.00;83.60
63094;DHT22;49183;51.380;0.098;2022-10-31T13:34:39;15.00;83.70
63094;DHT22;49183;51.380;0.098;2022-10-31T13:45:15;14.90;83.60
63094;DHT22;49183;51.380;0.098;2022-10-31T13:47:42;14.90;83.80
63094;DHT22;49183;51.380;0.098;2022-10-31T13:52:47;14.90;83.90
63094;DHT22;49183;51.380;0.098;2022-10-31T13:58:03;14.80;84.10
63094;DHT22;49183;51.380;0.098;2022-10-31T14:00:31;14.80;84.00
63094;DHT22;49183;51.380;0.098;2022-10-31T14:03:02;14.80;84.00
63094;DHT22;49183;51.380;0.098;2022-10-31T14:05:31;14.80;83.80
63094;DHT22;49183;51.380;0.098;2022-10-31T14:08:01;14.80;83.80
63094;DHT22;49183;51.380;0.098;2022-10-31T14:10:37;14.70;83.80
63094;DHT22;49183;51.380;0.098;2022-10-31T14:13:06;14.70;83.70
63094;DHT22;49183;51.380;0.098;2022-10-31T14:15:34;14.70;83.70
63094;DHT22;49183;51.380;0.098;2022-10-31T14:18:05;14.70;83.50
63094;DHT22;49183;51.380;0.098;2022-10-31T14:20:36;14.70;83.60
63094;DHT22;49183;51.380;0.098;2022-10-31T14:25:50;14.70;83.60
63094;DHT22;49183;51.380;0.098;2022-10-31T14:28:22;14.70;83.70
63094;DHT22;49183;51.380;0.098;2022-10-31T14:30:58;14.70;83.80
63094;DHT22;49183;51.380;0.098;2022-10-31T14:33:29;14.70;83.80
63094;DHT22;49183;51.380;0.098;2022-10-31T14:36:01;14.60;83.90
63094;DHT22;49183;51.380;0.098;2022-10-31T14:38:34;14.60;83.80
63094;DHT22;49183;51.380;0.098;2022-10-31T14:43:35;14.60;83.80
63094;DHT22;49183;51.380;0.098;2022-10-31T14:46:30;14.60;83.70
63094;DHT22;49183;51.380;0.098;2022-10-31T14:51:47;14.60;83.30
63094;DHT22;49183;51.380;0.098;2022-10-31T14:54:15;14.60;83.30
63094;DHT22;49183;51.380;0.098;2022-10-31T14:56:54;14.60;83.40
63094;DHT22;49183;51.380;0.098;2022-10-31T14:59:24;14.60;83.50
63094;DHT22;49183;51.380;0.098;2022-10-31T15:01:59;14.60;83.50
63094;DHT22;49183;51.380;0.098;2022-10-31T15:04:28;14.60;83.50
63094;DHT22;49183;51.380;0.098;2022-10-31T15:07:04;14.50;83.60
63094;DHT22;49183;51.380;0.098;2022-10-31T15:09:33;14.50;83.60
63094;DHT22;49183;51.380;0.098;2022-10-31T15:12:16;14.40;83.70
63094;DHT22;49183;51.380;0.098;2022-10-31T15:14:48;14.50;83.80
63094;DHT22;49183;51.380;0.098;2022-10-31T15:17:16;14.40;83.90
63094;DHT22;49183;51.380;0.098;2022-10-31T15:19:43;14.40;83.90
63094;DHT22;49183;51.380;0.098;2022-10-31T15:22:15;14.40;84.00
63094;DHT22;49183;51.380;0.098;2022-10-31T15:24:43;14.40;84.10
63094;DHT22;49183;51.380;0.098;2022-10-31T15:27:14;14.40;84.10
63094;DHT22;49183;51.380;0.098;2022-10-31T15:29:54;14.30;84.10
63094;DHT22;49183;51.380;0.098;2022-10-31T15:32:23;14.20;84.20
63094;DHT22;49183;51.380;0.098;2022-10-31T15:34:52;14.20;84.20
63094;DHT22;49183;51.380;0.098;2022-10-31T15:37:22;14.20;84.10
63094;DHT22;49183;51.380;0.098;2022-10-31T15:39:55;14.10;84.20
63094;DHT22;49183;51.380;0.098;2022-10-31T15:47:32;14.00;84.00
63094;DHT22;49183;51.380;0.098;2022-10-31T15:50:00;14.00;83.90
63094;DHT22;49183;51.380;0.098;2022-10-31T15:52:30;13.90;83.70
63094;DHT22;49183;51.380;0.098;2022-10-31T15:55:00;13.90;83.70
63094;DHT22;49183;51.380;0.098;2022-10-31T15:57:28;13.80;83.70
63094;DHT22;49183;51.380;0.098;2022-10-31T15:59:55;13.80;83.80
63094;DHT22;49183;51.380;0.098;2022-10-31T16:02:24;13.80;83.70
63094;DHT22;49183;51.380;0.098;2022-10-31T16:04:54;13.80;83.80
63094;DHT22;49183;51.380;0.098;2022-10-31T16:07:22;13.70;83.80
63094;DHT22;49183;51.380;0.098;2022-10-31T16:12:21;13.60;84.20
63094;DHT22;49183;51.380;0.098;2022-10-31T16:14:53;13.60;84.30
63094;DHT22;49183;51.380;0.098;2022-10-31T16:17:22;13.50;84.50
63094;DHT22;49183;51.380;0.098;2022-10-31T16:19:51;13.50;84.60
63094;DHT22;49183;51.380;0.098;2022-10-31T16:22:20;13.50;84.80
63094;DHT22;49183;51.380;0.098;2022-10-31T16:27:19;13.40;85.00
63094;DHT22;49183;51.380;0.098;2022-10-31T16:29:50;13.40;85.20
63094;DHT22;49183;51.380;0.098;2022-10-31T16:35:01;13.40;85.20
63094;DHT22;49183;51.380;0.098;2022-10-31T16:37:29;13.40;85.10
63094;DHT22;49183;51.380;0.098;2022-10-31T16:39:56;13.40;85.00
63094;DHT22;49183;51.380;0.098;2022-10-31T16:42:23;13.40;84.80
63094;DHT22;49183;51.380;0.098;2022-10-31T16:44:51;13.40;84.60
63094;DHT22;49183;51.380;0.098;2022-10-31T16:47:19;13.50;84.40
63094;DHT22;49183;51.380;0.098;2022-10-31T16:49:50;13.50;84.40
63094;DHT22;49183;51.380;0.098;2022-10-31T16:52:18;13.50;84.30
63094;DHT22;49183;51.380;0.098;2022-10-31T16:54:45;13.40;84.20
63094;DHT22;49183;51.380;0.098;2022-10-31T16:57:17;13.50;84.20
63094;DHT22;49183;51.380;0.098;2022-10-31T16:59:46;13.50;84.10
63094;DHT22;49183;51.380;0.098;2022-10-31T17:02:15;13.50;84.10
63094;DHT22;49183;51.380;0.098;2022-10-31T17:04:43;13.50;84.20
63094;DHT22;49183;51.380;0.098;2022-10-31T17:07:11;13.40;84.30
63094;DHT22;49183;51.380;0.098;2022-10-31T17:09:38;13.50;84.30
63094;DHT22;49183;51.380;0.098;2022-10-31T17:12:06;13.40;84.40
63094;DHT22;49183;51.380;0.098;2022-10-31T17:14:38;13.40;84.40
63094;DHT22;49183;51.380;0.098;2022-10-31T17:17:07;13.40;84.50
63094;DHT22;49183;51.380;0.098;2022-10-31T17:19:34;13.40;84.60
63094;DHT22;49183;51.380;0.098;2022-10-31T17:22:01;13.40;84.70
63094;DHT22;49183;51.380;0.098;2022-10-31T17:24:29;13.40;84.80
63094;DHT22;49183;51.380;0.098;2022-10-31T17:26:56;13.40;84.80
63094;DHT22;49183;51.380;0.098;2022-10-31T17:29:24;13.40;85.00
63094;DHT22;49183;51.380;0.098;2022-10-31T17:31:51;13.40;85.10
63094;DHT22;49183;51.380;0.098;2022-10-31T17:34:19;13.40;85.30
63094;DHT22;49183;51.380;0.098;2022-10-31T17:36:54;13.30;85.60
63094;DHT22;49183;51.380;0.098;2022-10-31T17:39:34;13.30;85.80
